sensor_id;sensor_type;location;lat;lon;timestamp;P1;durP1;ratioP1;P2;durP2;ratioP2
30571;SDS011;17348;50.948;10.696;2024-02-21T00:00:53;14.75;;;3.30;;
30571;SDS011;17348;50.948;10.696;2024-02-21T00:03:57;13.27;;;3.73;;
30571;SDS011;17348;50.948;10.696;2024-02-21T00:06:59;19.50;;;3.40;;
30571;SDS011;17348;50.948;10.696;2024-02-21T00:10:01;11.73;;;2.77;;
30571;SDS011;17348;50.948;10.696;2024-02-21T00:13:04;17.10;;;3.55;;
30571;SDS011;17348;50.948;10.696;2024-02-21T00:16:07;22.23;;;4.47;;
30571;SDS011;17348;50.948;10.696;2024-02-21T00:19:11;18.45;;;2.95;;
30571;SDS011;17348;50.948;10.696;2024-02-21T00:22:15;18.87;;;3.27;;
30571;SDS011;17348;50.948;10.696;2024-02-21T00:25:17;18.10;;;3.57;;
30571;SDS011;17348;50.948;10.696;2024-02-21T00:28:19;12.93;;;3.20;;
30571;SDS011;17348;50.948;10.696;2024-02-21T00:31:22;16.77;;;3.33;;
30571;SDS011;17348;50.948;10.696;2024-02-21T00:34:25;20.37;;;3.80;;
30571;SDS011;17348;50.948;10.696;2024-02-21T00:37:29;11.00;;;2.57;;
30571;SDS011;17348;50.948;10.696;2024-02-21T00:40:32;16.33;;;2.93;;
30571;SDS011;17348;50.948;10.696;2024-02-21T00:43:35;15.52;;;3.03;;
30571;SDS011;17348;50.948;10.696;2024-02-21T00:46:37;10.27;;;2.90;;
30571;SDS011;17348;50.948;10.696;2024-02-21T00:49:41;14.87;;;3.27;;
30571;SDS011;17348;50.948;10.696;2024-02-21T00:52:43;20.33;;;3.35;;
30571;SDS011;17348;50.948;10.696;2024-02-21T00:55:46;18.13;;;3.75;;
30571;SDS011;17348;50.948;10.696;2024-02-21T00:58:48;11.87;;;3.00;;
30571;SDS011;17348;50.948;10.696;2024-02-21T01:01:50;22.85;;;3.60;;
30571;SDS011;17348;50.948;10.696;2024-02-21T01:04:54;19.77;;;3.47;;
30571;SDS011;17348;50.948;10.696;2024-02-21T01:07:56;14.67;;;3.63;;
30571;SDS011;17348;50.948;10.696;2024-02-21T01:10:58;12.20;;;2.93;;
30571;SDS011;17348;50.948;10.696;2024-02-21T01:14:01;15.37;;;3.10;;
30571;SDS011;17348;50.948;10.696;2024-02-21T01:17:03;17.83;;;3.50;;
30571;SDS011;17348;50.948;10.696;2024-02-21T01:20:08;13.80;;;3.47;;
30571;SDS011;17348;50.948;10.696;2024-02-21T01:23:13;10.67;;;2.97;;
30571;SDS011;17348;50.948;10.696;2024-02-21T01:26:16;15.03;;;3.67;;
30571;SDS011;17348;50.948;10.696;2024-02-21T01:29:18;11.70;;;3.47;;
30571;SDS011;17348;50.948;10.696;2024-02-21T01:32:21;9.05;;;3.08;;
30571;SDS011;17348;50.948;10.696;2024-02-21T01:35:26;11.87;;;3.27;;
30571;SDS011;17348;50.948;10.696;2024-02-21T01:38:28;17.48;;;3.60;;
30571;SDS011;17348;50.948;10.696;2024-02-21T01:41:32;9.23;;;2.67;;
30571;SDS011;17348;50.948;10.696;2024-02-21T01:44:35;14.10;;;3.30;;
30571;SDS011;17348;50.948;10.696;2024-02-21T01:47:38;10.07;;;3.33;;
30571;SDS011;17348;50.948;10.696;2024-02-21T01:50:42;20.97;;;3.17;;
30571;SDS011;17348;50.948;10.696;2024-02-21T01:53:45;12.77;;;3.13;;
30571;SDS011;17348;50.948;10.696;2024-02-21T01:56:48;14.63;;;3.33;;
30571;SDS011;17348;50.948;10.696;2024-02-21T01:59:51;16.27;;;3.70;;
30571;SDS011;17348;50.948;10.696;2024-02-21T02:02:53;12.17;;;2.70;;
30571;SDS011;17348;50.948;10.696;2024-02-21T02:05:58;15.87;;;3.90;;
30571;SDS011;17348;50.948;10.696;2024-02-21T02:09:00;19.83;;;3.00;;
30571;SDS011;17348;50.948;10.696;2024-02-21T02:12:03;9.97;;;3.23;;
30571;SDS011;17348;50.948;10.696;2024-02-21T02:15:06;11.33;;;3.23;;
30571;SDS011;17348;50.948;10.696;2024-02-21T02:18:09;12.70;;;3.30;;
30571;SDS011;17348;50.948;10.696;2024-02-21T02:21:15;31.17;;;4.20;;
30571;SDS011;17348;50.948;10.696;2024-02-21T02:24:27;10.63;;;3.20;;
30571;SDS011;17348;50.948;10.696;2024-02-21T02:27:29;11.65;;;3.60;;
30571;SDS011;17348;50.948;10.696;2024-02-21T02:30:32;18.88;;;4.13;;
30571;SDS011;17348;50.948;10.696;2024-02-21T02:33:35;16.90;;;4.00;;
30571;SDS011;17348;50.948;10.696;2024-02-21T02:36:37;17.52;;;3.95;;
30571;SDS011;17348;50.948;10.696;2024-02-21T02:39:41;12.47;;;4.83;;
30571;SDS011;17348;50.948;10.696;2024-02-21T02:42:44;18.45;;;3.90;;
30571;SDS011;17348;50.948;10.696;2024-02-21T02:45:46;12.23;;;4.07;;
30571;SDS011;17348;50.948;10.696;2024-02-21T02:48:48;19.30;;;4.93;;
30571;SDS011;17348;50.948;10.696;2024-02-21T02:51:50;12.32;;;3.70;;
30571;SDS011;17348;50.948;10.696;2024-02-21T02:54:54;20.13;;;4.67;;
30571;SDS011;17348;50.948;10.696;2024-02-21T02:57:56;9.90;;;3.90;;
30571;SDS011;17348;50.948;10.696;2024-02-21T03:00:59;24.33;;;5.37;;
30571;SDS011;17348;50.948;10.696;2024-02-21T03:04:03;24.73;;;5.40;;
30571;SDS011;17348;50.948;10.696;2024-02-21T03:07:06;14.20;;;3.87;;
30571;SDS011;17348;50.948;10.696;2024-02-21T03:10:10;20.38;;;5.55;;
30571;SDS011;17348;50.948;10.696;2024-02-21T03:13:12;20.43;;;5.27;;
30571;SDS011;17348;50.948;10.696;2024-02-21T03:16:16;13.67;;;4.43;;
30571;SDS011;17348;50.948;10.696;2024-02-21T03:19:19;14.73;;;4.23;;
30571;SDS011;17348;50.948;10.696;2024-02-21T03:22:21;13.00;;;4.30;;
30571;SDS011;17348;50.948;10.696;2024-02-21T03:25:25;20.93;;;5.30;;
30571;SDS011;17348;50.948;10.696;2024-02-21T03:28:27;15.40;;;4.77;;
30571;SDS011;17348;50.948;10.696;2024-02-21T03:31:29;20.93;;;5.60;;
30571;SDS011;17348;50.948;10.696;2024-02-21T03:34:32;17.53;;;5.17;;
30571;SDS011;17348;50.948;10.696;2024-02-21T03:37:34;15.87;;;5.33;;
30571;SDS011;17348;50.948;10.696;2024-02-21T03:40:38;24.77;;;5.53;;
30571;SDS011;17348;50.948;10.696;2024-02-21T03:43:40;18.53;;;5.20;;
30571;SDS011;17348;50.948;10.696;2024-02-21T03:46:42;17.70;;;5.23;;
30571;SDS011;17348;50.948;10.696;2024-02-21T03:49:45;22.97;;;5.43;;
30571;SDS011;17348;50.948;10.696;2024-02-21T03:52:47;15.70;;;4.43;;
30571;SDS011;17348;50.948;10.696;2024-02-21T03:55:50;15.87;;;4.40;;
30571;SDS011;17348;50.948;10.696;2024-02-21T03:58:53;19.10;;;4.73;;
30571;SDS011;17348;50.948;10.696;2024-02-21T04:01:56;17.57;;;4.90;;
30571;SDS011;17348;50.948;10.696;2024-02-21T04:04:58;17.50;;;4.37;;
30571;SDS011;17348;50.948;10.696;2024-02-21T04:08:03;13.13;;;4.83;;
30571;SDS011;17348;50.948;10.696;2024-02-21T04:11:07;16.80;;;5.33;;
30571;SDS011;17348;50.948;10.696;2024-02-21T04:14:09;18.30;;;4.30;;
30571;SDS011;17348;50.948;10.696;2024-02-21T04:17:12;17.03;;;4.13;;
30571;SDS011;17348;50.948;10.696;2024-02-21T04:20:15;14.47;;;4.80;;
30571;SDS011;17348;50.948;10.696;2024-02-21T04:23:18;12.77;;;3.77;;
30571;SDS011;17348;50.948;10.696;2024-02-21T04:26:21;14.47;;;4.10;;
30571;SDS011;17348;50.948;10.696;2024-02-21T04:29:24;22.27;;;4.07;;
30571;SDS011;17348;50.948;10.696;2024-02-21T04:32:26;17.27;;;4.40;;
30571;SDS011;17348;50.948;10.696;2024-02-21T04:35:28;12.37;;;4.10;;
30571;SDS011;17348;50.948;10.696;2024-02-21T04:38:31;23.17;;;5.13;;
30571;SDS011;17348;50.948;10.696;2024-02-21T04:41:34;20.57;;;3.93;;
30571;SDS011;17348;50.948;10.696;2024-02-21T04:44:37;12.13;;;4.83;;
30571;SDS011;17348;50.948;10.696;2024-02-21T04:47:39;13.30;;;4.03;;
30571;SDS011;17348;50.948;10.696;2024-02-21T04:50:41;24.63;;;5.00;;
30571;SDS011;17348;50.948;10.696;2024-02-21T04:53:44;11.77;;;4.80;;
30571;SDS011;17348;50.948;10.696;2024-02-21T04:56:47;20.40;;;4.13;;
30571;SDS011;17348;50.948;10.696;2024-02-21T04:59:50;9.33;;;3.57;;
30571;SDS011;17348;50.948;10.696;2024-02-21T05:02:52;9.20;;;4.43;;
30571;SDS011;17348;50.948;10.696;2024-02-21T05:05:54;15.93;;;3.40;;
30571;SDS011;17348;50.948;10.696;2024-02-21T05:08:56;16.27;;;4.33;;
30571;SDS011;17348;50.948;10.696;2024-02-21T05:12:00;14.13;;;4.43;;
30571;SDS011;17348;50.948;10.696;2024-02-21T05:15:03;10.97;;;4.20;;
30571;SDS011;17348;50.948;10.696;2024-02-21T05:18:06;8.83;;;3.57;;
30571;SDS011;17348;50.948;10.696;2024-02-21T05:21:08;13.57;;;4.50;;
30571;SDS011;17348;50.948;10.696;2024-02-21T05:24:11;21.27;;;4.40;;
30571;SDS011;17348;50.948;10.696;2024-02-21T05:27:14;7.43;;;3.07;;
30571;SDS011;17348;50.948;10.696;2024-02-21T05:30:17;16.23;;;4.20;;
30571;SDS011;17348;50.948;10.696;2024-02-21T05:33:19;11.17;;;4.37;;
30571;SDS011;17348;50.948;10.696;2024-02-21T05:36:22;14.33;;;4.13;;
30571;SDS011;17348;50.948;10.696;2024-02-21T05:39:24;16.53;;;5.07;;
30571;SDS011;17348;50.948;10.696;2024-02-21T05:42:28;11.25;;;4.50;;
30571;SDS011;17348;50.948;10.696;2024-02-21T05:45:30;13.47;;;4.03;;
30571;SDS011;17348;50.948;10.696;2024-02-21T05:48:33;12.98;;;4.65;;
30571;SDS011;17348;50.948;10.696;2024-02-21T05:51:35;9.07;;;4.20;;
30571;SDS011;17348;50.948;10.696;2024-02-21T05:54:37;17.93;;;4.83;;
30571;SDS011;17348;50.948;10.696;2024-02-21T05:57:42;10.07;;;4.47;;
30571;SDS011;17348;50.948;10.696;2024-02-21T06:00:44;14.63;;;4.23;;
30571;SDS011;17348;50.948;10.696;2024-02-21T06:03:46;13.40;;;4.60;;
30571;SDS011;17348;50.948;10.696;2024-02-21T06:06:49;8.93;;;4.73;;
30571;SDS011;17348;50.948;10.696;2024-02-21T06:09:51;13.73;;;4.63;;
30571;SDS011;17348;50.948;10.696;2024-02-21T06:12:55;12.73;;;3.83;;
30571;SDS011;17348;50.948;10.696;2024-02-21T06:15:57;10.20;;;4.37;;
30571;SDS011;17348;50.948;10.696;2024-02-21T06:18:59;9.80;;;3.78;;
30571;SDS011;17348;50.948;10.696;2024-02-21T06:22:02;14.83;;;4.23;;
30571;SDS011;17348;50.948;10.696;2024-02-21T06:25:08;8.32;;;4.43;;
30571;SDS011;17348;50.948;10.696;2024-02-21T06:28:12;10.90;;;4.70;;
30571;SDS011;17348;50.948;10.696;2024-02-21T06:31:14;15.20;;;5.47;;
30571;SDS011;17348;50.948;10.696;2024-02-21T06:34:16;15.03;;;6.13;;
30571;SDS011;17348;50.948;10.696;2024-02-21T06:37:21;14.25;;;5.10;;
30571;SDS011;17348;50.948;10.696;2024-02-21T06:40:23;9.70;;;4.70;;
30571;SDS011;17348;50.948;10.696;2024-02-21T06:43:27;25.35;;;5.63;;
30571;SDS011;17348;50.948;10.696;2024-02-21T06:46:29;16.33;;;5.40;;
30571;SDS011;17348;50.948;10.696;2024-02-21T06:49:33;19.90;;;6.38;;
30571;SDS011;17348;50.948;10.696;2024-02-21T06:52:37;18.17;;;5.97;;
30571;SDS011;17348;50.948;10.696;2024-02-21T06:55:39;12.40;;;5.22;;
30571;SDS011;17348;50.948;10.696;2024-02-21T06:58:43;16.05;;;5.35;;
30571;SDS011;17348;50.948;10.696;2024-02-21T07:01:45;14.55;;;5.10;;
30571;SDS011;17348;50.948;10.696;2024-02-21T07:04:48;16.35;;;5.35;;
30571;SDS011;17348;50.948;10.696;2024-02-21T07:07:51;10.93;;;4.70;;
30571;SDS011;17348;50.948;10.696;2024-02-21T07:10:53;12.20;;;5.17;;
30571;SDS011;17348;50.948;10.696;2024-02-21T07:13:57;13.18;;;5.45;;
30571;SDS011;17348;50.948;10.696;2024-02-21T07:16:59;11.27;;;5.47;;
30571;SDS011;17348;50.948;10.696;2024-02-21T07:20:02;18.92;;;5.10;;
30571;SDS011;17348;50.948;10.696;2024-02-21T07:23:06;12.23;;;5.00;;
30571;SDS011;17348;50.948;10.696;2024-02-21T07:26:08;17.90;;;6.20;;
30571;SDS011;17348;50.948;10.696;2024-02-21T07:29:12;12.63;;;5.33;;
30571;SDS011;17348;50.948;10.696;2024-02-21T07:32:14;14.53;;;4.80;;
30571;SDS011;17348;50.948;10.696;2024-02-21T07:35:17;23.93;;;5.83;;
30571;SDS011;17348;50.948;10.696;2024-02-21T07:38:19;18.67;;;6.43;;
30571;SDS011;17348;50.948;10.696;2024-02-21T07:41:21;15.30;;;5.30;;
30571;SDS011;17348;50.948;10.696;2024-02-21T07:44:25;14.65;;;5.85;;
30571;SDS011;17348;50.948;10.696;2024-02-21T07:47:27;14.23;;;5.03;;
30571;SDS011;17348;50.948;10.696;2024-02-21T07:50:30;13.95;;;5.30;;
30571;SDS011;17348;50.948;10.696;2024-02-21T07:53:32;16.00;;;4.85;;
30571;SDS011;17348;50.948;10.696;2024-02-21T07:56:34;19.42;;;5.53;;
30571;SDS011;17348;50.948;10.696;2024-02-21T07:59:38;10.40;;;5.03;;
30571;SDS011;17348;50.948;10.696;2024-02-21T08:02:40;19.20;;;6.05;;
30571;SDS011;17348;50.948;10.696;2024-02-21T08:05:44;9.40;;;4.05;;
30571;SDS011;17348;50.948;10.696;2024-02-21T08:08:46;12.23;;;5.05;;
30571;SDS011;17348;50.948;10.696;2024-02-21T08:11:49;15.10;;;5.82;;
30571;SDS011;17348;50.948;10.696;2024-02-21T08:14:52;13.23;;;4.47;;
30571;SDS011;17348;50.948;10.696;2024-02-21T08:17:55;14.57;;;5.20;;
30571;SDS011;17348;50.948;10.696;2024-02-21T08:21:00;15.02;;;4.97;;
30571;SDS011;17348;50.948;10.696;2024-02-21T08:24:02;15.70;;;5.55;;
30571;SDS011;17348;50.948;10.696;2024-02-21T08:27:05;17.02;;;4.28;;
30571;SDS011;17348;50.948;10.696;2024-02-21T08:30:09;10.75;;;4.40;;
30571;SDS011;17348;50.948;10.696;2024-02-21T08:33:12;11.77;;;5.32;;
30571;SDS011;17348;50.948;10.696;2024-02-21T08:36:17;16.10;;;5.10;;
30571;SDS011;17348;50.948;10.696;2024-02-21T08:39:20;15.73;;;4.32;;
30571;SDS011;17348;50.948;10.696;2024-02-21T08:42:23;10.77;;;4.35;;
30571;SDS011;17348;50.948;10.696;2024-02-21T08:45:26;12.30;;;4.78;;
30571;SDS011;17348;50.948;10.696;2024-02-21T08:48:29;11.45;;;4.45;;
30571;SDS011;17348;50.948;10.696;2024-02-21T08:51:31;10.02;;;3.78;;
30571;SDS011;17348;50.948;10.696;2024-02-21T08:54:33;8.05;;;4.35;;
30571;SDS011;17348;50.948;10.696;2024-02-21T08:57:36;7.38;;;3.60;;
30571;SDS011;17348;50.948;10.696;2024-02-21T09:00:39;8.30;;;3.42;;
30571;SDS011;17348;50.948;10.696;2024-02-21T09:03:42;13.95;;;4.00;;
30571;SDS011;17348;50.948;10.696;2024-02-21T09:06:45;10.85;;;3.85;;
30571;SDS011;17348;50.948;10.696;2024-02-21T09:09:47;9.30;;;3.50;;
30571;SDS011;17348;50.948;10.696;2024-02-21T09:12:49;12.50;;;3.53;;
30571;SDS011;17348;50.948;10.696;2024-02-21T09:15:53;12.57;;;3.42;;
30571;SDS011;17348;50.948;10.696;2024-02-21T09:18:55;9.67;;;3.67;;
30571;SDS011;17348;50.948;10.696;2024-02-21T09:21:58;11.73;;;4.32;;
30571;SDS011;17348;50.948;10.696;2024-02-21T09:25:00;9.65;;;3.42;;
30571;SDS011;17348;50.948;10.696;2024-02-21T09:28:04;15.10;;;3.55;;
30571;SDS011;17348;50.948;10.696;2024-02-21T09:31:08;12.82;;;4.07;;
30571;SDS011;17348;50.948;10.696;2024-02-21T09:34:13;13.55;;;4.05;;
30571;SDS011;17348;50.948;10.696;2024-02-21T09:37:15;10.02;;;4.07;;
30571;SDS011;17348;50.948;10.696;2024-02-21T09:40:17;11.25;;;4.25;;
30571;SDS011;17348;50.948;10.696;2024-02-21T09:43:20;10.65;;;3.47;;
30571;SDS011;17348;50.948;10.696;2024-02-21T09:46:24;11.43;;;3.80;;
30571;SDS011;17348;50.948;10.696;2024-02-21T09:49:40;8.10;;;3.97;;
30571;SDS011;17348;50.948;10.696;2024-02-21T09:52:45;15.65;;;4.05;;
30571;SDS011;17348;50.948;10.696;2024-02-21T09:55:48;12.63;;;4.45;;
30571;SDS011;17348;50.948;10.696;2024-02-21T09:58:50;14.32;;;4.38;;
30571;SDS011;17348;50.948;10.696;2024-02-21T10:01:54;13.13;;;4.65;;
30571;SDS011;17348;50.948;10.696;2024-02-21T10:04:56;13.90;;;4.30;;
30571;SDS011;17348;50.948;10.696;2024-02-21T10:07:59;9.75;;;4.00;;
30571;SDS011;17348;50.948;10.696;2024-02-21T10:11:01;11.60;;;4.00;;
30571;SDS011;17348;50.948;10.696;2024-02-21T10:14:04;13.50;;;4.30;;
30571;SDS011;17348;50.948;10.696;2024-02-21T10:17:08;9.63;;;4.40;;
30571;SDS011;17348;50.948;10.696;2024-02-21T10:20:16;17.88;;;3.67;;
30571;SDS011;17348;50.948;10.696;2024-02-21T10:23:19;14.18;;;4.53;;
30571;SDS011;17348;50.948;10.696;2024-02-21T10:26:21;11.77;;;4.40;;
30571;SDS011;17348;50.948;10.696;2024-02-21T10:29:23;11.07;;;3.85;;
30571;SDS011;17348;50.948;10.696;2024-02-21T10:32:27;13.07;;;4.43;;
30571;SDS011;17348;50.948;10.696;2024-02-21T10:35:31;11.15;;;3.33;;
30571;SDS011;17348;50.948;10.696;2024-02-21T10:38:34;8.43;;;3.50;;
30571;SDS011;17348;50.948;10.696;2024-02-21T10:41:37;17.52;;;3.78;;
30571;SDS011;17348;50.948;10.696;2024-02-21T10:44:40;12.77;;;3.60;;
30571;SDS011;17348;50.948;10.696;2024-02-21T10:47:46;11.35;;;4.15;;
30571;SDS011;17348;50.948;10.696;2024-02-21T10:50:56;12.73;;;4.00;;
30571;SDS011;17348;50.948;10.696;2024-02-21T10:54:02;6.72;;;2.70;;
30571;SDS011;17348;50.948;10.696;2024-02-21T10:57:15;11.35;;;3.13;;
30571;SDS011;17348;50.948;10.696;2024-02-21T11:00:18;11.63;;;3.22;;
30571;SDS011;17348;50.948;10.696;2024-02-21T11:03:23;7.93;;;2.90;;
30571;SDS011;17348;50.948;10.696;2024-02-21T11:06:26;9.10;;;3.72;;
30571;SDS011;17348;50.948;10.696;2024-02-21T11:09:29;10.27;;;2.88;;
30571;SDS011;17348;50.948;10.696;2024-02-21T11:12:33;7.80;;;3.30;;
30571;SDS011;17348;50.948;10.696;2024-02-21T11:15:35;8.68;;;3.28;;
30571;SDS011;17348;50.948;10.696;2024-02-21T11:18:39;9.63;;;2.72;;
30571;SDS011;17348;50.948;10.696;2024-02-21T11:21:41;17.00;;;3.38;;
30571;SDS011;17348;50.948;10.696;2024-02-21T11:24:44;7.30;;;2.58;;
30571;SDS011;17348;50.948;10.696;2024-02-21T11:27:46;7.65;;;2.95;;
30571;SDS011;17348;50.948;10.696;2024-02-21T11:30:49;11.48;;;3.08;;
30571;SDS011;17348;50.948;10.696;2024-02-21T11:33:53;10.18;;;2.38;;
30571;SDS011;17348;50.948;10.696;2024-02-21T11:36:56;9.07;;;3.45;;
30571;SDS011;17348;50.948;10.696;2024-02-21T11:39:58;9.68;;;3.42;;
30571;SDS011;17348;50.948;10.696;2024-02-21T11:43:00;9.02;;;2.90;;
30571;SDS011;17348;50.948;10.696;2024-02-21T11:46:03;12.10;;;3.53;;
30571;SDS011;17348;50.948;10.696;2024-02-21T11:49:07;16.13;;;3.05;;
30571;SDS011;17348;50.948;10.696;2024-02-21T11:52:09;13.57;;;3.35;;
30571;SDS011;17348;50.948;10.696;2024-02-21T11:55:12;8.48;;;2.40;;
30571;SDS011;17348;50.948;10.696;2024-02-21T11:58:14;5.95;;;2.72;;
30571;SDS011;17348;50.948;10.696;2024-02-21T12:01:17;7.05;;;2.65;;
30571;SDS011;17348;50.948;10.696;2024-02-21T12:04:21;10.02;;;2.63;;
30571;SDS011;17348;50.948;10.696;2024-02-21T12:07:24;13.68;;;2.65;;
30571;SDS011;17348;50.948;10.696;2024-02-21T12:10:29;10.32;;;2.60;;
30571;SDS011;17348;50.948;10.696;2024-02-21T12:13:31;15.00;;;3.13;;
30571;SDS011;17348;50.948;10.696;2024-02-21T12:16:33;8.55;;;3.65;;
30571;SDS011;17348;50.948;10.696;2024-02-21T12:19:38;9.65;;;2.70;;
30571;SDS011;17348;50.948;10.696;2024-02-21T12:22:41;8.68;;;2.58;;
30571;SDS011;17348;50.948;10.696;2024-02-21T12:25:43;9.73;;;3.17;;
30571;SDS011;17348;50.948;10.696;2024-02-21T12:28:46;5.18;;;2.33;;
30571;SDS011;17348;50.948;10.696;2024-02-21T12:31:48;9.52;;;2.75;;
30571;SDS011;17348;50.948;10.696;2024-02-21T12:34:52;8.15;;;2.45;;
30571;SDS011;17348;50.948;10.696;2024-02-21T12:37:54;9.88;;;2.53;;
30571;SDS011;17348;50.948;10.696;2024-02-21T12:40:57;8.65;;;2.65;;
30571;SDS011;17348;50.948;10.696;2024-02-21T12:44:01;10.07;;;2.65;;
30571;SDS011;17348;50.948;10.696;2024-02-21T12:47:04;12.95;;;2.90;;
30571;SDS011;17348;50.948;10.696;2024-02-21T12:50:08;9.23;;;3.15;;
30571;SDS011;17348;50.948;10.696;2024-02-21T12:53:11;5.97;;;2.40;;
30571;SDS011;17348;50.948;10.696;2024-02-21T12:56:13;10.95;;;3.00;;
30571;SDS011;17348;50.948;10.696;2024-02-21T12:59:15;5.15;;;2.28;;
30571;SDS011;17348;50.948;10.696;2024-02-21T13:02:18;9.20;;;2.53;;
30571;SDS011;17348;50.948;10.696;2024-02-21T13:05:22;7.45;;;2.45;;
30571;SDS011;17348;50.948;10.696;2024-02-21T13:08:25;4.15;;;2.20;;
30571;SDS011;17348;50.948;10.696;2024-02-21T13:11:27;7.78;;;2.70;;
30571;SDS011;17348;50.948;10.696;2024-02-21T13:14:31;9.52;;;2.60;;
30571;SDS011;17348;50.948;10.696;2024-02-21T13:17:35;11.02;;;3.30;;
30571;SDS011;17348;50.948;10.696;2024-02-21T13:20:39;6.88;;;2.35;;
30571;SDS011;17348;50.948;10.696;2024-02-21T13:23:41;9.70;;;3.50;;
30571;SDS011;17348;50.948;10.696;2024-02-21T13:26:44;10.90;;;2.75;;
30571;SDS011;17348;50.948;10.696;2024-02-21T13:29:47;10.73;;;2.78;;
30571;SDS011;17348;50.948;10.696;2024-02-21T13:32:49;5.82;;;2.55;;
30571;SDS011;17348;50.948;10.696;2024-02-21T13:35:53;8.18;;;2.40;;
30571;SDS011;17348;50.948;10.696;2024-02-21T13:38:55;6.03;;;2.10;;
30571;SDS011;17348;50.948;10.696;2024-02-21T13:41:57;6.53;;;2.40;;
30571;SDS011;17348;50.948;10.696;2024-02-21T13:45:00;14.18;;;2.47;;
30571;SDS011;17348;50.948;10.696;2024-02-21T13:48:03;12.68;;;3.05;;
30571;SDS011;17348;50.948;10.696;2024-02-21T13:51:08;6.43;;;1.92;;
30571;SDS011;17348;50.948;10.696;2024-02-21T13:54:12;6.70;;;2.25;;
30571;SDS011;17348;50.948;10.696;2024-02-21T13:57:17;7.22;;;2.10;;
30571;SDS011;17348;50.948;10.696;2024-02-21T14:00:20;7.72;;;2.42;;
30571;SDS011;17348;50.948;10.696;2024-02-21T14:03:22;8.63;;;2.58;;
30571;SDS011;17348;50.948;10.696;2024-02-21T14:06:27;9.38;;;2.85;;
30571;SDS011;17348;50.948;10.696;2024-02-21T14:09:30;13.80;;;2.72;;
30571;SDS011;17348;50.948;10.696;2024-02-21T14:12:32;7.57;;;2.30;;
30571;SDS011;17348;50.948;10.696;2024-02-21T14:15:34;9.65;;;2.38;;
30571;SDS011;17348;50.948;10.696;2024-02-21T14:18:40;10.40;;;2.20;;
30571;SDS011;17348;50.948;10.696;2024-02-21T14:21:44;6.57;;;1.92;;
30571;SDS011;17348;50.948;10.696;2024-02-21T14:24:46;5.45;;;2.15;;
30571;SDS011;17348;50.948;10.696;2024-02-21T14:27:49;10.55;;;2.22;;
30571;SDS011;17348;50.948;10.696;2024-02-21T14:30:51;8.27;;;1.98;;
30571;SDS011;17348;50.948;10.696;2024-02-21T14:33:57;7.20;;;2.38;;
30571;SDS011;17348;50.948;10.696;2024-02-21T14:37:01;10.57;;;2.45;;
30571;SDS011;17348;50.948;10.696;2024-02-21T14:40:04;7.43;;;2.28;;
30571;SDS011;17348;50.948;10.696;2024-02-21T14:43:07;6.47;;;1.98;;
30571;SDS011;17348;50.948;10.696;2024-02-21T14:46:11;13.15;;;2.40;;
30571;SDS011;17348;50.948;10.696;2024-02-21T14:49:13;7.35;;;1.95;;
30571;SDS011;17348;50.948;10.696;2024-02-21T14:52:17;6.40;;;2.00;;
30571;SDS011;17348;50.948;10.696;2024-02-21T14:55:21;6.30;;;2.00;;
30571;SDS011;17348;50.948;10.696;2024-02-21T14:58:24;6.05;;;1.83;;
30571;SDS011;17348;50.948;10.696;2024-02-21T15:01:27;6.30;;;1.83;;
30571;SDS011;17348;50.948;10.696;2024-02-21T15:04:30;8.20;;;2.00;;
30571;SDS011;17348;50.948;10.696;2024-02-21T15:07:34;7.82;;;1.60;;
30571;SDS011;17348;50.948;10.696;2024-02-21T15:10:36;11.02;;;1.80;;
30571;SDS011;17348;50.948;10.696;2024-02-21T15:13:39;6.07;;;2.40;;
30571;SDS011;17348;50.948;10.696;2024-02-21T15:16:41;7.20;;;1.60;;
30571;SDS011;17348;50.948;10.696;2024-02-21T15:19:45;8.93;;;2.00;;
30571;SDS011;17348;50.948;10.696;2024-02-21T15:22:49;19.52;;;2.40;;
30571;SDS011;17348;50.948;10.696;2024-02-21T15:25:51;6.63;;;1.77;;
30571;SDS011;17348;50.948;10.696;2024-02-21T15:28:54;9.32;;;1.65;;
30571;SDS011;17348;50.948;10.696;2024-02-21T15:31:56;7.13;;;1.70;;
30571;SDS011;17348;50.948;10.696;2024-02-21T15:34:58;16.55;;;2.65;;
30571;SDS011;17348;50.948;10.696;2024-02-21T15:38:04;11.43;;;2.28;;
30571;SDS011;17348;50.948;10.696;2024-02-21T15:41:06;5.75;;;1.77;;
30571;SDS011;17348;50.948;10.696;2024-02-21T15:44:08;10.35;;;2.05;;
30571;SDS011;17348;50.948;10.696;2024-02-21T15:47:11;7.25;;;1.70;;
30571;SDS011;17348;50.948;10.696;2024-02-21T15:50:13;3.95;;;1.77;;
30571;SDS011;17348;50.948;10.696;2024-02-21T15:53:17;5.35;;;2.22;;
30571;SDS011;17348;50.948;10.696;2024-02-21T15:56:20;14.50;;;2.22;;
30571;SDS011;17348;50.948;10.696;2024-02-21T15:59:23;8.65;;;1.90;;
30571;SDS011;17348;50.948;10.696;2024-02-21T16:02:26;15.10;;;2.80;;
30571;SDS011;17348;50.948;10.696;2024-02-21T16:05:28;9.48;;;2.25;;
30571;SDS011;17348;50.948;10.696;2024-02-21T16:08:32;8.20;;;1.80;;
30571;SDS011;17348;50.948;10.696;2024-02-21T16:11:37;4.07;;;1.67;;
30571;SDS011;17348;50.948;10.696;2024-02-21T16:14:39;6.47;;;2.58;;
30571;SDS011;17348;50.948;10.696;2024-02-21T16:17:43;11.30;;;2.55;;
30571;SDS011;17348;50.948;10.696;2024-02-21T16:20:46;7.57;;;2.35;;
30571;SDS011;17348;50.948;10.696;2024-02-21T16:23:50;7.00;;;2.00;;
30571;SDS011;17348;50.948;10.696;2024-02-21T16:26:52;7.03;;;2.30;;
30571;SDS011;17348;50.948;10.696;2024-02-21T16:29:54;13.15;;;3.55;;
30571;SDS011;17348;50.948;10.696;2024-02-21T16:32:57;14.82;;;2.90;;
30571;SDS011;17348;50.948;10.696;2024-02-21T16:35:59;9.77;;;2.28;;
30571;SDS011;17348;50.948;10.696;2024-02-21T16:39:04;10.18;;;2.90;;
30571;SDS011;17348;50.948;10.696;2024-02-21T16:42:07;10.70;;;2.85;;
30571;SDS011;17348;50.948;10.696;2024-02-21T16:45:12;7.43;;;2.63;;
30571;SDS011;17348;50.948;10.696;2024-02-21T16:48:15;12.05;;;3.30;;
30571;SDS011;17348;50.948;10.696;2024-02-21T16:51:17;13.63;;;2.92;;
30571;SDS011;17348;50.948;10.696;2024-02-21T16:54:24;15.15;;;4.00;;
30571;SDS011;17348;50.948;10.696;2024-02-21T16:57:27;14.90;;;3.88;;
30571;SDS011;17348;50.948;10.696;2024-02-21T17:00:29;24.25;;;4.95;;
30571;SDS011;17348;50.948;10.696;2024-02-21T17:03:32;17.05;;;4.65;;
30571;SDS011;17348;50.948;10.696;2024-02-21T17:06:34;9.98;;;3.35;;
30571;SDS011;17348;50.948;10.696;2024-02-21T17:09:38;12.75;;;3.28;;
30571;SDS011;17348;50.948;10.696;2024-02-21T17:12:40;9.80;;;3.65;;
30571;SDS011;17348;50.948;10.696;2024-02-21T17:15:43;23.13;;;4.32;;
30571;SDS011;17348;50.948;10.696;2024-02-21T17:18:45;13.15;;;3.47;;
30571;SDS011;17348;50.948;10.696;2024-02-21T17:21:48;9.65;;;2.60;;
30571;SDS011;17348;50.948;10.696;2024-02-21T17:24:52;7.05;;;2.05;;
30571;SDS011;17348;50.948;10.696;2024-02-21T17:27:54;7.03;;;2.58;;
30571;SDS011;17348;50.948;10.696;2024-02-21T17:30:56;5.00;;;1.75;;
30571;SDS011;17348;50.948;10.696;2024-02-21T17:33:59;15.40;;;2.10;;
30571;SDS011;17348;50.948;10.696;2024-02-21T17:37:01;20.90;;;3.78;;
30571;SDS011;17348;50.948;10.696;2024-02-21T17:40:06;9.85;;;2.10;;
30571;SDS011;17348;50.948;10.696;2024-02-21T17:43:09;12.93;;;2.63;;
30571;SDS011;17348;50.948;10.696;2024-02-21T17:46:13;16.40;;;3.35;;
30571;SDS011;17348;50.948;10.696;2024-02-21T17:49:16;13.53;;;2.57;;
30571;SDS011;17348;50.948;10.696;2024-02-21T17:52:21;11.10;;;2.55;;
30571;SDS011;17348;50.948;10.696;2024-02-21T17:55:24;19.60;;;3.30;;